createdAt,value
2023-05-25T00:01:36.501Z,15.89
2023-05-25T00:04:04.074Z,15.86
2023-05-25T00:06:31.508Z,15.80
2023-05-25T00:08:58.219Z,15.45
2023-05-25T00:11:24.984Z,15.66
2023-05-25T00:13:52.030Z,15.84
2023-05-25T00:16:18.531Z,16.06
2023-05-25T00:18:45.694Z,15.98
2023-05-25T00:21:12.452Z,15.92
2023-05-25T00:23:38.944Z,15.84
2023-05-25T00:26:05.726Z,15.78
2023-05-25T00:28:32.203Z,15.95
2023-05-25T00:30:58.915Z,15.95
2023-05-25T00:33:25.562Z,16.07
2023-05-25T00:35:54.195Z,16.07
2023-05-25T00:38:21.399Z,16.02
2023-05-25T00:40:48.050Z,15.99
2023-05-25T00:43:14.560Z,16.09
2023-05-25T00:45:41.456Z,15.95
2023-05-25T00:48:08.599Z,15.86
2023-05-25T00:50:38.329Z,15.88
2023-05-25T00:53:08.671Z,16.02
2023-05-25T00:55:40.065Z,15.95
2023-05-25T00:58:08.029Z,15.98
2023-05-25T01:00:35.987Z,15.94
2023-05-25T01:03:09.745Z,16.10
2023-05-25T01:05:38.446Z,16.10
2023-05-25T01:08:05.146Z,16.16
2023-05-25T01:10:32.849Z,16.15
2023-05-25T01:13:02.027Z,16.27
2023-05-25T01:15:29.994Z,16.29
2023-05-25T01:17:59.678Z,16.26
2023-05-25T01:20:29.900Z,16.25
2023-05-25T01:22:59.657Z,16.18
2023-05-25T01:25:46.545Z,16.07
2023-05-25T01:28:16.120Z,16.10
2023-05-25T01:30:44.197Z,16.04
2023-05-25T01:33:10.966Z,16.08
2023-05-25T01:35:38.827Z,16.09
2023-05-25T01:38:05.865Z,16.07
2023-05-25T01:40:32.472Z,15.89
2023-05-25T01:43:00.972Z,15.89
2023-05-25T01:45:27.887Z,15.96
2023-05-25T01:48:13.428Z,15.87
2023-05-25T01:50:53.609Z,15.84
2023-05-25T01:53:24.339Z,15.73
2023-05-25T01:55:56.243Z,15.73
2023-05-25T01:58:24.645Z,15.62
2023-05-25T02:00:52.742Z,15.58
2023-05-25T02:03:20.407Z,15.61
2023-05-25T02:05:48.920Z,15.57
2023-05-25T02:08:15.473Z,15.60
2023-05-25T02:10:41.973Z,15.59
2023-05-25T02:13:08.485Z,15.63
2023-05-25T02:15:35.146Z,15.65
2023-05-25T02:18:02.080Z,15.40
2023-05-25T02:20:30.744Z,15.29
2023-05-25T02:22:57.345Z,15.08
2023-05-25T02:25:23.820Z,15.10
2023-05-25T02:27:50.771Z,14.83
2023-05-25T02:30:17.513Z,15.04
2023-05-25T02:32:44.104Z,14.99
2023-05-25T02:35:10.786Z,15.12
2023-05-25T02:37:38.436Z,14.85
2023-05-25T02:40:05.618Z,14.77
2023-05-25T02:42:32.227Z,14.81
2023-05-25T02:44:59.073Z,14.57
2023-05-25T02:47:26.156Z,15.06
2023-05-25T02:49:52.775Z,14.92
2023-05-25T02:52:19.487Z,14.92
2023-05-25T02:54:46.172Z,14.92
2023-05-25T02:57:19.036Z,14.96
2023-05-25T02:59:45.708Z,14.74
2023-05-25T03:02:13.007Z,14.52
2023-05-25T03:04:39.591Z,14.44
2023-05-25T03:07:06.123Z,14.37
2023-05-25T03:09:32.862Z,14.57
2023-05-25T03:12:01.471Z,14.63
2023-05-25T03:14:28.694Z,14.60
2023-05-25T03:17:01.634Z,14.46
2023-05-25T03:19:28.301Z,14.57
2023-05-25T03:21:54.849Z,14.50
2023-05-25T03:24:21.353Z,14.37
2023-05-25T03:26:47.939Z,14.47
2023-05-25T03:29:15.478Z,14.38
2023-05-25T03:31:42.112Z,14.35
2023-05-25T03:34:08.669Z,14.29
2023-05-25T03:36:39.171Z,14.05
2023-05-25T03:39:07.169Z,13.96
2023-05-25T03:41:33.825Z,14.03
2023-05-25T03:44:00.414Z,14.10
2023-05-25T03:46:27.048Z,14.20
2023-05-25T03:48:56.431Z,14.32
2023-05-25T03:51:22.912Z,14.44
2023-05-25T03:53:49.464Z,14.67
2023-05-25T03:56:16.029Z,14.82
2023-05-25T03:58:42.617Z,14.93
2023-05-25T04:01:10.397Z,14.97
2023-05-25T04:03:37.195Z,14.63
2023-05-25T04:06:04.009Z,14.46
2023-05-25T04:08:30.556Z,14.67
2023-05-25T04:10:57.759Z,14.61
2023-05-25T04:13:24.377Z,14.45
2023-05-25T04:15:51.366Z,14.58
2023-05-25T04:18:21.912Z,14.76
2023-05-25T04:20:49.407Z,14.75
2023-05-25T04:23:19.549Z,14.64
2023-05-25T04:25:46.582Z,14.76
2023-05-25T04:28:14.437Z,14.81
2023-05-25T04:30:51.609Z,14.78
2023-05-25T04:33:29.746Z,15.09
2023-05-25T04:36:02.234Z,15.02
2023-05-25T04:38:30.683Z,14.93
2023-05-25T04:41:05.880Z,15.12
2023-05-25T04:43:32.590Z,15.07
2023-05-25T04:46:00.782Z,14.69
2023-05-25T04:48:29.244Z,14.77
2023-05-25T04:50:56.000Z,14.54
2023-05-25T04:53:23.101Z,15.02
2023-05-25T04:55:49.699Z,15.23
2023-05-25T04:58:16.352Z,14.96
2023-05-25T05:00:44.858Z,15.00
2023-05-25T05:03:11.676Z,15.14
2023-05-25T05:05:38.327Z,14.92
2023-05-25T05:08:11.856Z,15.25
2023-05-25T05:10:38.479Z,15.34
2023-05-25T05:13:05.867Z,15.62
2023-05-25T05:15:32.728Z,15.93
2023-05-25T05:17:59.590Z,16.00
2023-05-25T05:20:26.206Z,16.07
2023-05-25T05:22:53.562Z,16.27
2023-05-25T05:25:20.604Z,16.64
2023-05-25T05:27:47.551Z,16.78
2023-05-25T05:30:23.046Z,16.88
2023-05-25T05:32:49.794Z,16.91
2023-05-25T05:35:17.411Z,16.80
2023-05-25T05:37:46.974Z,16.18
2023-05-25T05:40:13.606Z,16.50
2023-05-25T05:42:42.440Z,16.58
2023-05-25T05:45:10.078Z,16.84
2023-05-25T05:47:37.365Z,16.57
2023-05-25T05:50:04.211Z,16.66
2023-05-25T05:52:31.147Z,16.92
2023-05-25T05:54:57.664Z,17.01
2023-05-25T05:57:24.494Z,16.97
2023-05-25T05:59:51.163Z,17.26
2023-05-25T06:02:19.487Z,17.51
2023-05-25T06:04:46.346Z,17.76
2023-05-25T06:07:12.880Z,18.15
2023-05-25T06:09:40.879Z,17.42
2023-05-25T06:12:08.374Z,17.79
2023-05-25T06:14:35.117Z,17.23
2023-05-25T06:17:03.513Z,17.15
2023-05-25T06:19:30.414Z,17.18
2023-05-25T06:21:57.174Z,17.33
2023-05-25T06:24:23.690Z,17.86
2023-05-25T06:26:50.528Z,18.03
2023-05-25T06:29:17.619Z,17.99
2023-05-25T06:31:44.377Z,17.67
2023-05-25T06:34:10.872Z,17.89
2023-05-25T06:36:37.953Z,18.51
2023-05-25T06:39:04.495Z,18.77
2023-05-25T06:41:31.106Z,19.30
2023-05-25T06:43:57.792Z,19.12
2023-05-25T06:46:30.291Z,19.40
2023-05-25T06:49:01.511Z,19.54
2023-05-25T06:51:28.084Z,19.13
2023-05-25T06:53:57.684Z,19.11
2023-05-25T06:56:24.220Z,20.19
2023-05-25T06:58:51.147Z,19.43
2023-05-25T07:01:17.780Z,18.93
2023-05-25T07:03:44.316Z,19.20
2023-05-25T07:06:12.221Z,19.69
2023-05-25T07:08:39.001Z,19.00
2023-05-25T07:11:05.640Z,19.51
2023-05-25T07:13:32.187Z,19.10
2023-05-25T07:15:58.685Z,19.61
2023-05-25T07:18:26.301Z,20.62
2023-05-25T07:20:53.519Z,19.97
2023-05-25T07:23:20.242Z,19.94
2023-05-25T07:25:46.954Z,20.20
2023-05-25T07:28:13.706Z,21.27
2023-05-25T07:30:40.892Z,21.43
2023-05-25T07:33:07.471Z,20.23
2023-05-25T07:35:35.461Z,20.94
2023-05-25T07:38:04.408Z,20.34
2023-05-25T07:40:30.893Z,21.91
2023-05-25T07:42:57.368Z,21.56
2023-05-25T07:45:23.865Z,21.06
2023-05-25T07:47:50.460Z,21.22
2023-05-25T07:50:17.212Z,20.77
2023-05-25T07:52:43.768Z,21.47
2023-05-25T07:55:10.594Z,21.01
2023-05-25T07:57:37.104Z,21.11
2023-05-25T08:00:06.665Z,21.34
2023-05-25T08:02:39.497Z,22.27
2023-05-25T08:05:06.426Z,21.33
2023-05-25T08:07:33.292Z,20.48
2023-05-25T08:10:00.090Z,21.00
2023-05-25T08:12:43.093Z,20.94
2023-05-25T08:15:13.645Z,21.00
2023-05-25T08:17:40.309Z,21.10
2023-05-25T08:20:09.337Z,21.43
2023-05-25T08:22:36.091Z,20.75
2023-05-25T08:25:03.760Z,21.83
2023-05-25T08:27:31.697Z,21.69
2023-05-25T08:29:59.405Z,21.83
2023-05-25T08:32:26.267Z,23.23
2023-05-25T08:34:52.957Z,22.96
2023-05-25T08:37:21.366Z,23.32
2023-05-25T08:39:47.909Z,22.75
2023-05-25T08:42:14.395Z,22.33
2023-05-25T08:44:42.762Z,22.51
2023-05-25T08:47:11.842Z,23.50
2023-05-25T08:49:39.366Z,23.53
2023-05-25T08:52:08.327Z,24.19
2023-05-25T08:54:36.217Z,22.99
2023-05-25T08:57:08.081Z,23.94
2023-05-25T08:59:42.789Z,24.66
2023-05-25T09:02:25.247Z,25.19
2023-05-25T09:04:52.211Z,24.74
2023-05-25T09:07:19.326Z,24.21
2023-05-25T09:09:47.612Z,24.60
2023-05-25T09:12:15.395Z,23.87
2023-05-25T09:14:45.883Z,23.45
2023-05-25T09:17:14.207Z,23.80
2023-05-25T09:19:40.830Z,24.29
2023-05-25T09:22:15.485Z,23.85
2023-05-25T09:24:44.419Z,23.57
2023-05-25T09:27:11.678Z,23.99
2023-05-25T09:29:38.283Z,23.78
2023-05-25T09:32:06.321Z,24.73
2023-05-25T09:34:34.042Z,25.29
2023-05-25T09:37:04.507Z,26.52
2023-05-25T09:39:31.337Z,26.55
2023-05-25T09:41:58.044Z,25.90
2023-05-25T09:44:24.629Z,24.72
2023-05-25T09:46:51.128Z,24.74
2023-05-25T09:49:17.750Z,25.41
2023-05-25T09:51:44.286Z,25.90
2023-05-25T09:54:11.213Z,25.79
2023-05-25T09:56:37.796Z,25.76
2023-05-25T09:59:04.325Z,26.81
2023-05-25T10:01:32.066Z,26.28
2023-05-25T10:04:04.315Z,25.57
2023-05-25T10:06:33.329Z,25.58
2023-05-25T10:09:00.723Z,26.85
2023-05-25T10:11:27.919Z,27.09
2023-05-25T10:13:55.655Z,27.10
2023-05-25T10:16:29.275Z,27.49
2023-05-25T10:19:18.099Z,25.65
2023-05-25T10:21:47.931Z,24.54
2023-05-25T10:24:24.515Z,24.53
2023-05-25T10:26:53.940Z,24.73
2023-05-25T10:29:20.858Z,25.91
2023-05-25T10:31:48.007Z,26.42
2023-05-25T10:34:15.080Z,25.15
2023-05-25T10:36:41.860Z,26.19
2023-05-25T10:39:09.306Z,26.05
2023-05-25T10:41:35.864Z,26.65
2023-05-25T10:44:02.752Z,26.40
2023-05-25T10:46:29.495Z,26.34
2023-05-25T10:49:02.191Z,26.75
2023-05-25T10:51:38.699Z,26.24
2023-05-25T10:54:05.623Z,25.65
2023-05-25T10:56:32.208Z,26.67
2023-05-25T10:58:58.890Z,27.51
2023-05-25T11:01:25.571Z,27.65
2023-05-25T11:03:56.707Z,26.62
2023-05-25T11:06:45.816Z,25.72
2023-05-25T11:09:33.815Z,27.28
2023-05-25T11:12:01.871Z,27.69
2023-05-25T11:14:30.123Z,28.00
2023-05-25T11:17:16.325Z,27.96
2023-05-25T11:19:44.129Z,28.23
2023-05-25T11:22:35.450Z,28.57
2023-05-25T11:25:02.944Z,27.94
2023-05-25T11:27:30.462Z,26.64
2023-05-25T11:29:58.207Z,26.42
2023-05-25T11:32:26.336Z,27.09
2023-05-25T11:34:53.932Z,27.62
2023-05-25T11:37:21.382Z,26.90
2023-05-25T11:39:54.534Z,26.95
2023-05-25T11:42:21.875Z,27.45
2023-05-25T11:44:48.528Z,28.23
2023-05-25T11:47:18.709Z,28.35
2023-05-25T11:49:47.163Z,27.11
2023-05-25T11:52:14.760Z,27.57
2023-05-25T11:54:41.696Z,27.22
2023-05-25T11:57:34.333Z,28.25
2023-05-25T12:00:04.421Z,27.80
2023-05-25T12:02:41.039Z,26.32
2023-05-25T12:05:10.160Z,26.45
2023-05-25T12:07:42.754Z,25.59
2023-05-25T12:10:12.699Z,27.81
2023-05-25T12:12:43.415Z,29.41
2023-05-25T12:15:10.877Z,28.10
2023-05-25T12:17:38.765Z,27.30
2023-05-25T12:20:07.635Z,27.19
2023-05-25T12:22:34.500Z,29.04
2023-05-25T12:25:01.222Z,29.63
2023-05-25T12:27:27.825Z,28.77
2023-05-25T12:29:58.370Z,28.39
2023-05-25T12:32:25.062Z,28.51
2023-05-25T12:34:51.584Z,26.91
2023-05-25T12:37:19.897Z,26.23
2023-05-25T12:39:46.517Z,27.59
2023-05-25T12:42:15.156Z,27.03
2023-05-25T12:44:42.607Z,26.50
2023-05-25T12:47:27.869Z,27.97
2023-05-25T12:50:11.180Z,27.89
2023-05-25T12:52:38.881Z,28.19
2023-05-25T12:55:27.395Z,28.08
2023-05-25T12:58:02.143Z,27.55
2023-05-25T13:00:32.365Z,27.02
2023-05-25T13:02:59.266Z,27.53
2023-05-25T13:05:26.240Z,29.08
2023-05-25T13:07:56.854Z,27.31
2023-05-25T13:10:24.286Z,26.64
2023-05-25T13:12:51.859Z,26.81
2023-05-25T13:15:21.040Z,27.29
2023-05-25T13:17:48.749Z,27.12
2023-05-25T13:20:15.608Z,27.61
2023-05-25T13:22:43.597Z,27.38
2023-05-25T13:25:14.629Z,27.21
2023-05-25T13:27:44.224Z,27.87
2023-05-25T13:30:11.956Z,27.29
2023-05-25T13:32:38.954Z,26.24
2023-05-25T13:35:07.232Z,26.03
2023-05-25T13:37:34.232Z,26.06
2023-05-25T13:40:01.002Z,26.24
2023-05-25T13:42:27.568Z,26.35
2023-05-25T13:44:54.042Z,26.26
2023-05-25T13:47:20.580Z,27.83
2023-05-25T13:49:47.681Z,28.16
2023-05-25T13:52:14.342Z,28.01
2023-05-25T13:54:40.857Z,28.28
2023-05-25T13:57:07.476Z,26.43
2023-05-25T13:59:33.942Z,26.48
2023-05-25T14:02:00.594Z,27.01
2023-05-25T14:04:27.160Z,27.08
2023-05-25T14:06:53.720Z,27.52
2023-05-25T14:09:20.444Z,26.87
2023-05-25T14:11:47.363Z,27.25
2023-05-25T14:14:26.993Z,27.24
2023-05-25T14:16:56.961Z,27.64
2023-05-25T14:19:23.543Z,26.44
2023-05-25T14:22:03.770Z,27.10
2023-05-25T14:24:36.531Z,27.81
2023-05-25T14:27:03.198Z,26.94
2023-05-25T14:29:29.707Z,26.90
2023-05-25T14:31:56.319Z,27.57
2023-05-25T14:34:22.862Z,26.71
2023-05-25T14:36:49.385Z,27.49
2023-05-25T14:39:17.284Z,27.69
2023-05-25T14:41:44.247Z,26.85
2023-05-25T14:44:11.221Z,27.71
2023-05-25T14:46:37.885Z,28.22
2023-05-25T14:49:04.502Z,28.21
2023-05-25T14:51:30.994Z,27.66
2023-05-25T14:54:00.275Z,26.89
2023-05-25T14:56:26.892Z,26.95
2023-05-25T14:58:53.389Z,26.54
2023-05-25T15:01:20.110Z,26.74
2023-05-25T15:03:46.779Z,27.02
2023-05-25T15:06:13.491Z,26.64
2023-05-25T15:08:40.367Z,26.54
2023-05-25T15:11:09.715Z,27.23
2023-05-25T15:13:36.378Z,27.05
2023-05-25T15:16:02.977Z,26.77
2023-05-25T15:18:29.546Z,26.40
2023-05-25T15:20:58.010Z,26.16
2023-05-25T15:23:24.595Z,25.86
2023-05-25T15:25:51.123Z,25.86
2023-05-25T15:28:17.756Z,25.80
2023-05-25T15:30:44.332Z,26.59
2023-05-25T15:33:12.913Z,26.13
2023-05-25T15:35:39.442Z,25.95
2023-05-25T15:38:06.363Z,25.86
2023-05-25T15:40:32.924Z,26.02
2023-05-25T15:42:59.391Z,26.24
2023-05-25T15:45:26.417Z,25.84
2023-05-25T15:47:53.071Z,25.96
2023-05-25T15:50:19.866Z,26.06
2023-05-25T15:52:46.851Z,25.98
2023-05-25T15:55:13.410Z,26.18
2023-05-25T15:57:39.961Z,25.95
2023-05-25T16:00:06.842Z,25.17
2023-05-25T16:02:33.316Z,25.62
2023-05-25T16:04:59.836Z,25.63
2023-05-25T16:07:26.525Z,25.44
2023-05-25T16:09:53.033Z,25.45
2023-05-25T16:12:19.547Z,25.39
2023-05-25T16:14:46.065Z,25.00
2023-05-25T16:17:12.631Z,24.87
2023-05-25T16:19:39.202Z,25.22
2023-05-25T16:22:05.699Z,25.09
2023-05-25T16:24:32.185Z,24.91
2023-05-25T16:26:58.804Z,24.88
2023-05-25T16:29:25.348Z,25.17
2023-05-25T16:31:52.001Z,24.91
2023-05-25T16:34:18.504Z,24.65
2023-05-25T16:36:45.036Z,24.52
2023-05-25T16:39:11.853Z,24.58
2023-05-25T16:41:38.417Z,24.66
2023-05-25T16:44:04.928Z,24.71
2023-05-25T16:46:31.687Z,24.61
2023-05-25T16:48:58.478Z,24.57
2023-05-25T16:51:25.725Z,24.94
2023-05-25T16:53:53.822Z,24.55
2023-05-25T16:56:21.457Z,24.32
2023-05-25T16:58:47.984Z,24.32
2023-05-25T17:01:14.574Z,24.19
2023-05-25T17:03:41.231Z,24.44
2023-05-25T17:06:08.004Z,24.37
2023-05-25T17:08:36.261Z,24.31
2023-05-25T17:11:02.837Z,24.54
2023-05-25T17:13:29.366Z,24.50
2023-05-25T17:15:55.942Z,24.69
2023-05-25T17:18:22.575Z,24.98
2023-05-25T17:20:49.075Z,24.90
2023-05-25T17:23:18.305Z,24.89
2023-05-25T17:25:45.105Z,24.71
2023-05-25T17:28:11.913Z,24.98
2023-05-25T17:30:38.441Z,25.19
2023-05-25T17:33:05.054Z,24.49
2023-05-25T17:35:31.623Z,25.06
2023-05-25T17:37:58.163Z,24.89
2023-05-25T17:40:24.653Z,24.73
2023-05-25T17:42:51.144Z,24.90
2023-05-25T17:45:17.711Z,24.78
2023-05-25T17:47:44.250Z,24.77
2023-05-25T17:50:10.939Z,24.61
2023-05-25T17:52:37.473Z,24.49
2023-05-25T17:55:04.549Z,24.69
2023-05-25T17:57:31.212Z,24.56
2023-05-25T17:59:57.695Z,24.67
2023-05-25T18:02:24.374Z,24.44
2023-05-25T18:04:51.052Z,24.63
2023-05-25T18:07:18.609Z,24.22
2023-05-25T18:09:45.124Z,23.92
2023-05-25T18:12:11.634Z,23.84
2023-05-25T18:14:38.232Z,23.83
2023-05-25T18:17:04.917Z,23.96
2023-05-25T18:19:31.971Z,23.75
2023-05-25T18:21:58.504Z,23.71
2023-05-25T18:24:25.052Z,23.63
2023-05-25T18:26:51.655Z,23.46
2023-05-25T18:29:18.188Z,23.46
2023-05-25T18:31:47.234Z,23.27
2023-05-25T18:34:14.220Z,22.93
2023-05-25T18:36:40.773Z,22.80
2023-05-25T18:39:07.643Z,22.77
2023-05-25T18:41:34.270Z,22.86
2023-05-25T18:44:00.771Z,22.78
2023-05-25T18:46:28.442Z,22.81
2023-05-25T18:48:55.677Z,22.77
2023-05-25T18:51:25.554Z,22.91
2023-05-25T18:53:52.092Z,22.73
2023-05-25T18:56:18.710Z,22.85
2023-05-25T18:58:45.307Z,22.66
2023-05-25T19:01:11.819Z,22.42
2023-05-25T19:03:38.456Z,22.46
2023-05-25T19:06:05.161Z,22.30
2023-05-25T19:08:31.634Z,22.20
2023-05-25T19:10:58.167Z,22.28
2023-05-25T19:13:24.889Z,22.03
2023-05-25T19:15:51.437Z,22.18
2023-05-25T19:18:18.016Z,22.26
2023-05-25T19:20:44.726Z,21.95
2023-05-25T19:23:11.528Z,22.02
2023-05-25T19:25:38.097Z,22.03
2023-05-25T19:28:04.652Z,21.90
2023-05-25T19:30:31.236Z,21.89
2023-05-25T19:32:57.897Z,21.92
2023-05-25T19:35:24.462Z,22.02
2023-05-25T19:37:50.975Z,22.02
2023-05-25T19:40:17.587Z,21.95
2023-05-25T19:42:44.314Z,21.88
2023-05-25T19:45:11.246Z,21.73
2023-05-25T19:47:37.805Z,21.75
2023-05-25T19:50:04.555Z,21.69
2023-05-25T19:52:31.100Z,21.69
2023-05-25T19:54:57.636Z,21.62
2023-05-25T19:57:26.114Z,21.80
2023-05-25T19:59:52.695Z,21.83
2023-05-25T20:02:19.413Z,21.59
2023-05-25T20:04:46.253Z,21.66
2023-05-25T20:07:12.832Z,21.55
2023-05-25T20:09:39.397Z,21.78
2023-05-25T20:12:06.503Z,21.58
2023-05-25T20:14:35.953Z,21.83
2023-05-25T20:17:02.773Z,21.85
2023-05-25T20:19:29.662Z,21.46
2023-05-25T20:21:57.803Z,21.40
2023-05-25T20:24:24.271Z,21.34
2023-05-25T20:26:56.381Z,21.27
2023-05-25T20:29:23.825Z,21.14
2023-05-25T20:31:50.636Z,21.37
2023-05-25T20:34:17.288Z,21.17
2023-05-25T20:36:43.763Z,21.23
2023-05-25T20:39:10.229Z,21.18
2023-05-25T20:41:36.724Z,21.31
2023-05-25T20:44:06.420Z,21.17
2023-05-25T20:46:33.342Z,21.12
2023-05-25T20:48:59.897Z,21.19
2023-05-25T20:51:26.456Z,21.04
2023-05-25T20:53:53.858Z,20.70
2023-05-25T20:56:20.544Z,20.43
2023-05-25T20:58:47.130Z,20.31
2023-05-25T21:01:13.684Z,20.28
2023-05-25T21:03:40.384Z,20.25
2023-05-25T21:06:06.946Z,20.16
2023-05-25T21:08:33.576Z,20.10
2023-05-25T21:11:00.171Z,20.06
2023-05-25T21:13:26.714Z,20.02
2023-05-25T21:15:53.235Z,19.98
2023-05-25T21:18:19.761Z,20.10
2023-05-25T21:20:46.370Z,20.03
2023-05-25T21:23:12.943Z,19.98
2023-05-25T21:25:39.443Z,19.85
2023-05-25T21:28:06.806Z,19.90
2023-05-25T21:30:33.287Z,20.02
2023-05-25T21:32:59.862Z,19.77
2023-05-25T21:35:26.436Z,19.71
2023-05-25T21:37:52.934Z,19.78
2023-05-25T21:40:19.452Z,19.66
2023-05-25T21:42:45.954Z,19.85
2023-05-25T21:45:12.492Z,19.98
2023-05-25T21:47:39.010Z,19.88
2023-05-25T21:50:05.884Z,19.99
2023-05-25T21:52:32.487Z,20.00
2023-05-25T21:54:58.971Z,20.03
2023-05-25T21:57:25.544Z,19.72
2023-05-25T21:59:52.088Z,19.66
2023-05-25T22:02:18.644Z,19.71
2023-05-25T22:04:45.686Z,19.56
2023-05-25T22:07:12.237Z,19.57
2023-05-25T22:09:38.778Z,19.67
2023-05-25T22:12:06.741Z,19.73
2023-05-25T22:14:33.281Z,19.76
2023-05-25T22:16:59.895Z,19.78
2023-05-25T22:19:26.416Z,19.77
2023-05-25T22:21:53.498Z,19.59
2023-05-25T22:24:20.250Z,19.46
2023-05-25T22:26:46.762Z,19.39
2023-05-25T22:29:13.295Z,19.19
2023-05-25T22:31:39.816Z,19.21
2023-05-25T22:34:06.306Z,19.18
2023-05-25T22:36:32.785Z,19.14
2023-05-25T22:38:59.359Z,18.99
2023-05-25T22:41:26.479Z,18.81
2023-05-25T22:43:53.737Z,18.84
2023-05-25T22:46:20.939Z,18.75
2023-05-25T22:48:47.495Z,18.74
2023-05-25T22:51:14.087Z,18.80
2023-05-25T22:53:40.687Z,18.82
2023-05-25T22:56:07.299Z,18.91
2023-05-25T22:58:33.793Z,18.83
2023-05-25T23:01:00.305Z,18.74
2023-05-25T23:03:27.037Z,18.71
2023-05-25T23:05:53.619Z,18.74
2023-05-25T23:08:20.138Z,18.71
2023-05-25T23:10:46.607Z,18.34
2023-05-25T23:13:14.804Z,18.32
2023-05-25T23:15:44.318Z,18.22
2023-05-25T23:18:11.354Z,18.24
2023-05-25T23:20:37.955Z,18.24
2023-05-25T23:23:04.609Z,18.35
2023-05-25T23:25:31.095Z,18.23
2023-05-25T23:27:57.604Z,18.31
2023-05-25T23:30:24.173Z,18.26
2023-05-25T23:32:50.718Z,18.26
2023-05-25T23:35:17.281Z,18.12
2023-05-25T23:37:44.017Z,17.89
2023-05-25T23:40:10.997Z,17.91
2023-05-25T23:42:38.545Z,17.72
2023-05-25T23:45:05.286Z,17.62
2023-05-25T23:47:31.760Z,17.61
2023-05-25T23:49:58.395Z,17.63
2023-05-25T23:52:24.976Z,17.87
2023-05-25T23:54:51.496Z,18.04
2023-05-25T23:57:17.973Z,18.25
2023-05-25T23:59:44.444Z,18.16
